Weather at Skiathos Island National Airport

Public forecast

Using degrees Celsius for public forecast. Weather courtesy of forecast.io.

Current aviation weather report (METAR) for Skiathos Island National Airport

Report is more than 6 hours old.

2022/11/14 13:50 (retrieved 2 years ago)

LGSK 141350Z 03005KT 9999 SCT025 17/13 Q1024

Closest aviation forecast (TAF) to Skiathos Island National Airport

Forecast is more than 12 hours old.

Closest forecast is Elefsis Airport, 66.9 nm (123.9 km) S.

2023/02/22 17:13 (retrieved 1 year ago)

TAF LFSX 221708Z 2217/2315 CNL TAF LGEL 221700Z 2218/2318 VRB05KT 9999 FEW025